sensor_id;sensor_type;location;lat;lon;timestamp;pressure;altitude;pressure_sealevel;temperature;humidity
37066;BME280;22981;43.080;25.550;2023-07-13T00:01:54;99512.41;;;23.07;77.11
37066;BME280;22981;43.080;25.550;2023-07-13T00:04:23;99534.23;;;23.23;77.16
37066;BME280;22981;43.080;25.550;2023-07-13T00:06:51;99534.55;;;23.22;77.02
37066;BME280;22981;43.080;25.550;2023-07-13T00:09:20;99534.08;;;23.17;77.16
37066;BME280;22981;43.080;25.550;2023-07-13T00:11:51;99530.02;;;23.15;77.23
37066;BME280;22981;43.080;25.550;2023-07-13T00:14:19;99535.80;;;23.13;77.18
37066;BME280;22981;43.080;25.550;2023-07-13T00:16:47;99531.52;;;23.07;77.26
37066;BME280;22981;43.080;25.550;2023-07-13T00:19:15;99533.44;;;23.07;77.27
37066;BME280;22981;43.080;25.550;2023-07-13T00:21:43;99524.70;;;23.07;77.21
37066;BME280;22981;43.080;25.550;2023-07-13T00:24:15;99530.16;;;23.07;77.07
37066;BME280;22981;43.080;25.550;2023-07-13T00:26:45;99533.23;;;23.03;77.14
37066;BME280;22981;43.080;25.550;2023-07-13T00:29:12;99526.72;;;23.02;77.14
37066;BME280;22981;43.080;25.550;2023-07-13T00:31:40;99524.02;;;22.99;77.20
37066;BME280;22981;43.080;25.550;2023-07-13T00:34:08;99523.21;;;22.98;77.25
37066;BME280;22981;43.080;25.550;2023-07-13T00:36:36;99528.11;;;22.99;77.17
37066;BME280;22981;43.080;25.550;2023-07-13T00:39:04;99523.83;;;22.95;77.13
37066;BME280;22981;43.080;25.550;2023-07-13T00:41:32;99521.13;;;22.93;77.13
37066;BME280;22981;43.080;25.550;2023-07-13T00:44:00;99522.56;;;22.88;77.23
37066;BME280;22981;43.080;25.550;2023-07-13T00:46:30;99516.58;;;22.86;77.27
37066;BME280;22981;43.080;25.550;2023-07-13T00:49:04;99514.66;;;22.86;77.18
37066;BME280;22981;43.080;25.550;2023-07-13T00:51:34;99511.98;;;22.84;77.13
37066;BME280;22981;43.080;25.550;2023-07-13T00:54:04;99507.13;;;22.81;77.17
37066;BME280;22981;43.080;25.550;2023-07-13T00:56:33;99512.11;;;22.76;77.27
37066;BME280;22981;43.080;25.550;2023-07-13T00:59:03;99512.77;;;22.70;77.41
37066;BME280;22981;43.080;25.550;2023-07-13T01:01:32;99509.26;;;22.67;77.51
37066;BME280;22981;43.080;25.550;2023-07-13T01:03:59;99512.55;;;22.67;77.56
37066;BME280;22981;43.080;25.550;2023-07-13T01:06:27;99509.81;;;22.67;77.58
37066;BME280;22981;43.080;25.550;2023-07-13T01:08:56;99516.08;;;22.67;77.51
37066;BME280;22981;43.080;25.550;2023-07-13T01:11:27;99514.25;;;22.63;77.47
37066;BME280;22981;43.080;25.550;2023-07-13T01:13:55;99511.86;;;22.59;77.48
37066;BME280;22981;43.080;25.550;2023-07-13T01:16:28;99514.59;;;22.59;77.37
37066;BME280;22981;43.080;25.550;2023-07-13T01:18:56;99515.98;;;22.56;77.30
37066;BME280;22981;43.080;25.550;2023-07-13T01:21:25;99510.36;;;22.50;77.45
37066;BME280;22981;43.080;25.550;2023-07-13T01:23:53;99510.36;;;22.50;77.43
37066;BME280;22981;43.080;25.550;2023-07-13T01:26:20;99509.50;;;22.52;77.33
37066;BME280;22981;43.080;25.550;2023-07-13T01:28:48;99506.52;;;22.51;77.33
37066;BME280;22981;43.080;25.550;2023-07-13T01:31:16;99505.41;;;22.52;77.32
37066;BME280;22981;43.080;25.550;2023-07-13T01:33:43;99507.33;;;22.52;77.32
37066;BME280;22981;43.080;25.550;2023-07-13T01:36:12;99505.96;;;22.52;77.33
37066;BME280;22981;43.080;25.550;2023-07-13T01:38:40;99508.97;;;22.53;77.29
37066;BME280;22981;43.080;25.550;2023-07-13T01:41:07;99510.39;;;22.47;77.37
37066;BME280;22981;43.080;25.550;2023-07-13T01:43:35;99510.95;;;22.47;77.37
37066;BME280;22981;43.080;25.550;2023-07-13T01:46:02;99506.22;;;22.36;77.34
37066;BME280;22981;43.080;25.550;2023-07-13T01:48:30;99507.91;;;22.32;77.52
37066;BME280;22981;43.080;25.550;2023-07-13T01:50:58;99505.19;;;22.32;77.52
37066;BME280;22981;43.080;25.550;2023-07-13T01:53:26;99503.83;;;22.32;77.43
37066;BME280;22981;43.080;25.550;2023-07-13T01:55:53;99503.58;;;22.31;77.41
37066;BME280;22981;43.080;25.550;2023-07-13T01:58:21;99501.91;;;22.33;77.33
37066;BME280;22981;43.080;25.550;2023-07-13T02:00:49;99509.53;;;22.33;77.33
37066;BME280;22981;43.080;25.550;2023-07-13T02:03:17;99510.34;;;22.34;77.41
37066;BME280;22981;43.080;25.550;2023-07-13T02:05:46;99504.66;;;22.30;77.40
37066;BME280;22981;43.080;25.550;2023-07-13T02:08:13;99470.28;;;21.94;77.66
37066;BME280;22981;43.080;25.550;2023-07-13T02:10:41;99511.16;;;22.15;77.87
37066;BME280;22981;43.080;25.550;2023-07-13T02:13:09;99505.16;;;22.16;77.80
37066;BME280;22981;43.080;25.550;2023-07-13T02:15:38;99509.55;;;22.14;77.79
37066;BME280;22981;43.080;25.550;2023-07-13T02:18:07;99517.20;;;22.12;77.76
37066;BME280;22981;43.080;25.550;2023-07-13T02:20:35;99517.72;;;22.12;77.78
37066;BME280;22981;43.080;25.550;2023-07-13T02:23:02;99516.64;;;22.13;77.75
37066;BME280;22981;43.080;25.550;2023-07-13T02:25:30;99521.81;;;22.12;77.75
37066;BME280;22981;43.080;25.550;2023-07-13T02:27:58;99518.00;;;22.13;77.72
37066;BME280;22981;43.080;25.550;2023-07-13T02:30:26;99518.81;;;22.13;77.68
37066;BME280;22981;43.080;25.550;2023-07-13T02:32:56;99519.92;;;22.12;77.64
37066;BME280;22981;43.080;25.550;2023-07-13T02:35:24;99520.75;;;22.10;77.70
37066;BME280;22981;43.080;25.550;2023-07-13T02:37:52;99525.37;;;22.10;77.74
37066;BME280;22981;43.080;25.550;2023-07-13T02:40:19;99522.92;;;22.11;77.71
37066;BME280;22981;43.080;25.550;2023-07-13T02:42:47;99526.45;;;22.11;77.73
37066;BME280;22981;43.080;25.550;2023-07-13T02:45:14;99527.02;;;22.11;77.69
37066;BME280;22981;43.080;25.550;2023-07-13T02:47:42;99526.00;;;22.04;77.63
37066;BME280;22981;43.080;25.550;2023-07-13T02:50:10;99521.19;;;21.98;77.78
37066;BME280;22981;43.080;25.550;2023-07-13T02:52:37;99527.75;;;21.97;77.80
37066;BME280;22981;43.080;25.550;2023-07-13T02:55:05;99525.59;;;21.94;77.87
37066;BME280;22981;43.080;25.550;2023-07-13T02:57:33;99529.69;;;21.94;77.84
37066;BME280;22981;43.080;25.550;2023-07-13T03:00:01;99529.13;;;21.95;77.88
37066;BME280;22981;43.080;25.550;2023-07-13T03:02:31;99532.11;;;21.96;77.81
37066;BME280;22981;43.080;25.550;2023-07-13T03:04:59;99530.47;;;21.97;77.76
37066;BME280;22981;43.080;25.550;2023-07-13T03:07:27;99533.45;;;21.98;77.71
37066;BME280;22981;43.080;25.550;2023-07-13T03:09:58;99527.79;;;21.92;77.89
37066;BME280;22981;43.080;25.550;2023-07-13T03:12:26;99524.63;;;21.85;78.09
37066;BME280;22981;43.080;25.550;2023-07-13T03:14:53;99526.83;;;21.83;78.24
37066;BME280;22981;43.080;25.550;2023-07-13T03:17:21;99527.38;;;21.83;78.29
37066;BME280;22981;43.080;25.550;2023-07-13T03:19:49;99532.00;;;21.85;78.25
37066;BME280;22981;43.080;25.550;2023-07-13T03:22:18;99535.23;;;21.87;78.25
37066;BME280;22981;43.080;25.550;2023-07-13T03:24:45;99533.87;;;21.87;78.23
37066;BME280;22981;43.080;25.550;2023-07-13T03:27:16;99533.31;;;21.87;78.30
37066;BME280;22981;43.080;25.550;2023-07-13T03:29:44;99530.59;;;21.87;78.28
37066;BME280;22981;43.080;25.550;2023-07-13T03:32:12;99532.81;;;21.85;78.38
37066;BME280;22981;43.080;25.550;2023-07-13T03:34:39;99527.05;;;21.87;78.46
37066;BME280;22981;43.080;25.550;2023-07-13T03:37:07;99537.66;;;21.88;78.47
37066;BME280;22981;43.080;25.550;2023-07-13T03:39:34;99532.55;;;21.84;78.56
37066;BME280;22981;43.080;25.550;2023-07-13T03:42:02;99533.62;;;21.86;78.52
37066;BME280;22981;43.080;25.550;2023-07-13T03:44:30;99532.50;;;21.87;78.51
37066;BME280;22981;43.080;25.550;2023-07-13T03:46:57;99533.56;;;21.88;78.55
37066;BME280;22981;43.080;25.550;2023-07-13T03:49:28;99528.67;;;21.88;78.61
37066;BME280;22981;43.080;25.550;2023-07-13T03:52:03;99536.34;;;21.86;78.68
37066;BME280;22981;43.080;25.550;2023-07-13T03:54:30;99541.31;;;21.81;78.79
37066;BME280;22981;43.080;25.550;2023-07-13T03:57:00;99539.97;;;21.79;79.00
37066;BME280;22981;43.080;25.550;2023-07-13T03:59:28;99538.05;;;21.79;79.20
37066;BME280;22981;43.080;25.550;2023-07-13T04:01:55;99533.94;;;21.82;79.31
37066;BME280;22981;43.080;25.550;2023-07-13T04:04:23;99537.38;;;21.90;79.20
37066;BME280;22981;43.080;25.550;2023-07-13T04:06:51;99533.75;;;21.97;79.09
37066;BME280;22981;43.080;25.550;2023-07-13T04:09:19;99538.34;;;21.99;79.07
37066;BME280;22981;43.080;25.550;2023-07-13T04:11:47;99537.79;;;21.99;79.19
37066;BME280;22981;43.080;25.550;2023-07-13T04:14:15;99539.41;;;22.00;79.25
37066;BME280;22981;43.080;25.550;2023-07-13T04:16:43;99538.67;;;21.95;79.46
37066;BME280;22981;43.080;25.550;2023-07-13T04:19:12;99536.25;;;21.93;79.73
37066;BME280;22981;43.080;25.550;2023-07-13T04:21:40;99538.09;;;21.98;79.80
37066;BME280;22981;43.080;25.550;2023-07-13T04:24:07;99538.58;;;22.03;79.82
37066;BME280;22981;43.080;25.550;2023-07-13T04:26:35;99541.53;;;22.06;79.89
37066;BME280;22981;43.080;25.550;2023-07-13T04:29:05;99537.36;;;22.11;80.08
37066;BME280;22981;43.080;25.550;2023-07-13T04:31:33;99536.27;;;22.15;80.06
37066;BME280;22981;43.080;25.550;2023-07-13T04:34:01;99541.94;;;22.18;80.10
37066;BME280;22981;43.080;25.550;2023-07-13T04:36:29;99541.00;;;22.25;80.15
37066;BME280;22981;43.080;25.550;2023-07-13T04:38:56;99544.43;;;22.34;80.15
37066;BME280;22981;43.080;25.550;2023-07-13T04:41:24;99529.66;;;22.37;80.10
37066;BME280;22981;43.080;25.550;2023-07-13T04:43:52;99537.72;;;22.45;80.11
37066;BME280;22981;43.080;25.550;2023-07-13T04:46:20;99538.47;;;22.48;80.15
37066;BME280;22981;43.080;25.550;2023-07-13T04:48:49;99548.00;;;22.50;80.39
37066;BME280;22981;43.080;25.550;2023-07-13T04:51:19;99556.34;;;22.57;80.28
37066;BME280;22981;43.080;25.550;2023-07-13T04:53:46;99555.42;;;22.64;80.03
37066;BME280;22981;43.080;25.550;2023-07-13T04:56:14;99558.59;;;22.71;79.64
37066;BME280;22981;43.080;25.550;2023-07-13T04:58:41;99557.12;;;22.79;79.32
37066;BME280;22981;43.080;25.550;2023-07-13T05:01:09;99551.26;;;22.85;79.02
37066;BME280;22981;43.080;25.550;2023-07-13T05:03:37;99554.70;;;22.93;78.86
37066;BME280;22981;43.080;25.550;2023-07-13T05:06:06;99555.69;;;23.00;78.64
37066;BME280;22981;43.080;25.550;2023-07-13T05:08:36;99558.33;;;23.05;78.49
37066;BME280;22981;43.080;25.550;2023-07-13T05:11:05;99558.48;;;23.11;78.40
37066;BME280;22981;43.080;25.550;2023-07-13T05:13:33;99557.02;;;23.16;78.30
37066;BME280;22981;43.080;25.550;2023-07-13T05:16:04;99559.63;;;23.24;78.01
37066;BME280;22981;43.080;25.550;2023-07-13T05:18:33;99566.06;;;23.31;77.48
37066;BME280;22981;43.080;25.550;2023-07-13T05:21:06;99565.66;;;23.37;77.34
37066;BME280;22981;43.080;25.550;2023-07-13T05:23:35;99560.09;;;23.42;77.06
37066;BME280;22981;43.080;25.550;2023-07-13T05:26:03;99563.48;;;23.50;76.89
37066;BME280;22981;43.080;25.550;2023-07-13T05:28:31;99563.34;;;23.58;76.50
37066;BME280;22981;43.080;25.550;2023-07-13T05:30:59;99560.95;;;23.70;76.08
37066;BME280;22981;43.080;25.550;2023-07-13T05:33:27;99557.16;;;23.83;75.82
37066;BME280;22981;43.080;25.550;2023-07-13T05:35:55;99552.78;;;23.95;75.48
37066;BME280;22981;43.080;25.550;2023-07-13T05:38:23;99553.11;;;24.05;75.20
37066;BME280;22981;43.080;25.550;2023-07-13T05:40:51;99556.50;;;24.13;74.80
37066;BME280;22981;43.080;25.550;2023-07-13T05:43:18;99550.55;;;24.22;74.55
37066;BME280;22981;43.080;25.550;2023-07-13T05:45:46;99555.84;;;24.30;74.32
37066;BME280;22981;43.080;25.550;2023-07-13T05:48:13;99554.91;;;24.37;74.24
37066;BME280;22981;43.080;25.550;2023-07-13T05:50:41;99555.27;;;24.44;73.79
37066;BME280;22981;43.080;25.550;2023-07-13T05:53:09;99550.75;;;24.51;73.35
37066;BME280;22981;43.080;25.550;2023-07-13T05:55:40;99554.11;;;24.59;73.04
37066;BME280;22981;43.080;25.550;2023-07-13T05:58:05;99551.73;;;24.66;72.81
37066;BME280;22981;43.080;25.550;2023-07-13T06:00:33;99555.61;;;24.77;72.92
37066;BME280;22981;43.080;25.550;2023-07-13T06:03:00;99554.78;;;24.87;72.36
37066;BME280;22981;43.080;25.550;2023-07-13T06:05:28;99560.58;;;24.97;71.97
37066;BME280;22981;43.080;25.550;2023-07-13T06:07:56;99552.89;;;25.08;72.06
37066;BME280;22981;43.080;25.550;2023-07-13T06:10:23;99552.98;;;25.16;71.59
37066;BME280;22981;43.080;25.550;2023-07-13T06:12:51;99555.76;;;25.25;70.43
37066;BME280;22981;43.080;25.550;2023-07-13T06:15:19;99560.23;;;25.32;70.07
37066;BME280;22981;43.080;25.550;2023-07-13T06:17:46;99549.88;;;25.40;70.17
37066;BME280;22981;43.080;25.550;2023-07-13T06:20:14;99554.02;;;25.49;70.15
37066;BME280;22981;43.080;25.550;2023-07-13T06:22:42;99554.05;;;25.58;70.22
37066;BME280;22981;43.080;25.550;2023-07-13T06:25:09;99546.42;;;25.66;70.03
37066;BME280;22981;43.080;25.550;2023-07-13T06:27:37;99549.49;;;25.73;69.99
37066;BME280;22981;43.080;25.550;2023-07-13T06:30:05;99547.61;;;25.82;69.50
37066;BME280;22981;43.080;25.550;2023-07-13T06:32:33;99544.98;;;25.88;69.18
37066;BME280;22981;43.080;25.550;2023-07-13T06:35:00;99546.94;;;25.96;68.88
37066;BME280;22981;43.080;25.550;2023-07-13T06:37:28;99553.57;;;26.04;68.62
37066;BME280;22981;43.080;25.550;2023-07-13T06:39:56;99553.48;;;26.15;68.78
37066;BME280;22981;43.080;25.550;2023-07-13T06:42:23;99551.32;;;26.23;68.85
37066;BME280;22981;43.080;25.550;2023-07-13T06:44:51;99551.89;;;26.32;68.79
37066;BME280;22981;43.080;25.550;2023-07-13T06:47:18;99553.50;;;26.41;68.57
37066;BME280;22981;43.080;25.550;2023-07-13T06:49:46;99549.68;;;26.51;68.65
37066;BME280;22981;43.080;25.550;2023-07-13T06:52:13;99548.20;;;26.62;68.38
37066;BME280;22981;43.080;25.550;2023-07-13T06:54:41;99553.05;;;26.74;67.83
37066;BME280;22981;43.080;25.550;2023-07-13T06:57:08;99546.09;;;26.85;67.81
37066;BME280;22981;43.080;25.550;2023-07-13T06:59:41;99547.68;;;26.95;67.80
37066;BME280;22981;43.080;25.550;2023-07-13T07:02:11;99545.95;;;27.05;67.72
37066;BME280;22981;43.080;25.550;2023-07-13T07:04:39;99549.43;;;27.17;67.47
37066;BME280;22981;43.080;25.550;2023-07-13T07:07:07;99544.47;;;27.25;67.14
37066;BME280;22981;43.080;25.550;2023-07-13T07:09:34;99545.24;;;27.34;67.07
37066;BME280;22981;43.080;25.550;2023-07-13T07:12:03;99544.87;;;27.44;67.24
37066;BME280;22981;43.080;25.550;2023-07-13T07:14:31;99546.47;;;27.54;66.79
37066;BME280;22981;43.080;25.550;2023-07-13T07:17:01;99520.05;;;27.47;66.52
37066;BME280;22981;43.080;25.550;2023-07-13T07:19:30;99546.56;;;27.75;66.49
37066;BME280;22981;43.080;25.550;2023-07-13T07:21:58;99548.91;;;27.85;66.35
37066;BME280;22981;43.080;25.550;2023-07-13T07:27:20;99537.88;;;28.00;66.20
37066;BME280;22981;43.080;25.550;2023-07-13T07:29:49;99542.32;;;28.13;64.90
37066;BME280;22981;43.080;25.550;2023-07-13T07:32:17;99541.02;;;28.26;64.47
37066;BME280;22981;43.080;25.550;2023-07-13T07:34:45;99538.20;;;28.34;64.66
37066;BME280;22981;43.080;25.550;2023-07-13T07:37:14;99535.09;;;28.44;63.97
37066;BME280;22981;43.080;25.550;2023-07-13T07:39:43;99532.39;;;28.57;63.54
37066;BME280;22981;43.080;25.550;2023-07-13T07:42:11;99530.81;;;28.68;62.52
37066;BME280;22981;43.080;25.550;2023-07-13T07:44:40;99531.08;;;28.81;62.32
37066;BME280;22981;43.080;25.550;2023-07-13T07:47:08;99530.77;;;28.89;62.57
37066;BME280;22981;43.080;25.550;2023-07-13T07:49:37;99534.74;;;29.00;61.93
37066;BME280;22981;43.080;25.550;2023-07-13T07:52:06;99528.42;;;29.12;61.04
37066;BME280;22981;43.080;25.550;2023-07-13T07:54:33;99527.42;;;29.23;60.37
37066;BME280;22981;43.080;25.550;2023-07-13T07:57:02;99525.01;;;29.33;60.68
37066;BME280;22981;43.080;25.550;2023-07-13T07:59:33;99528.48;;;29.42;60.49
37066;BME280;22981;43.080;25.550;2023-07-13T08:02:04;99522.16;;;29.48;60.06
37066;BME280;22981;43.080;25.550;2023-07-13T08:04:31;99525.86;;;29.58;59.95
37066;BME280;22981;43.080;25.550;2023-07-13T08:07:03;99525.16;;;29.67;59.60
37066;BME280;22981;43.080;25.550;2023-07-13T08:09:37;99521.16;;;29.77;58.73
37066;BME280;22981;43.080;25.550;2023-07-13T08:12:05;99519.29;;;29.87;58.40
37066;BME280;22981;43.080;25.550;2023-07-13T08:14:33;99515.93;;;30.00;57.33
37066;BME280;22981;43.080;25.550;2023-07-13T08:17:01;99519.39;;;30.15;56.17
37066;BME280;22981;43.080;25.550;2023-07-13T08:19:28;99523.83;;;30.26;54.95
37066;BME280;22981;43.080;25.550;2023-07-13T08:21:56;99524.16;;;30.37;54.29
37066;BME280;22981;43.080;25.550;2023-07-13T08:24:24;99511.44;;;30.48;54.30
37066;BME280;22981;43.080;25.550;2023-07-13T08:26:52;99514.63;;;30.56;54.67
37066;BME280;22981;43.080;25.550;2023-07-13T08:29:20;99507.55;;;30.71;52.64
37066;BME280;22981;43.080;25.550;2023-07-13T08:31:48;99516.61;;;30.84;51.56
37066;BME280;22981;43.080;25.550;2023-07-13T08:34:16;99516.66;;;30.93;51.37
37066;BME280;22981;43.080;25.550;2023-07-13T08:36:44;99516.34;;;31.05;51.66
37066;BME280;22981;43.080;25.550;2023-07-13T08:39:11;99511.69;;;31.15;50.98
37066;BME280;22981;43.080;25.550;2023-07-13T08:41:39;99513.57;;;31.27;50.79
37066;BME280;22981;43.080;25.550;2023-07-13T08:44:15;99510.28;;;31.37;50.72
37066;BME280;22981;43.080;25.550;2023-07-13T08:46:39;99517.45;;;31.48;50.10
37066;BME280;22981;43.080;25.550;2023-07-13T08:49:16;99512.31;;;31.56;50.03
37066;BME280;22981;43.080;25.550;2023-07-13T08:54:35;99505.96;;;31.71;49.40
37066;BME280;22981;43.080;25.550;2023-07-13T08:57:14;99479.73;;;31.65;47.84
37066;BME280;22981;43.080;25.550;2023-07-13T08:59:42;99501.31;;;31.91;47.40
37066;BME280;22981;43.080;25.550;2023-07-13T09:02:28;99505.02;;;31.99;46.73
37066;BME280;22981;43.080;25.550;2023-07-13T09:10:30;99488.34;;;32.24;44.73
37066;BME280;22981;43.080;25.550;2023-07-13T09:13:05;99486.16;;;32.33;45.00
37066;BME280;22981;43.080;25.550;2023-07-13T09:15:35;99487.42;;;32.46;43.90
37066;BME280;22981;43.080;25.550;2023-07-13T09:20:50;99485.86;;;32.68;42.15
37066;BME280;22981;43.080;25.550;2023-07-13T09:23:20;99482.42;;;32.74;42.54
37066;BME280;22981;43.080;25.550;2023-07-13T09:25:52;99472.11;;;32.84;40.98
37066;BME280;22981;43.080;25.550;2023-07-13T09:28:22;99482.05;;;32.95;40.82
37066;BME280;22981;43.080;25.550;2023-07-13T09:33:30;99473.81;;;33.12;40.30
37066;BME280;22981;43.080;25.550;2023-07-13T09:35:58;99470.20;;;33.21;39.39
37066;BME280;22981;43.080;25.550;2023-07-13T09:38:28;99466.52;;;33.27;38.89
37066;BME280;22981;43.080;25.550;2023-07-13T09:41:11;99470.66;;;33.36;39.06
37066;BME280;22981;43.080;25.550;2023-07-13T09:43:35;99474.91;;;33.44;38.91
37066;BME280;22981;43.080;25.550;2023-07-13T09:46:03;99471.62;;;33.48;39.43
37066;BME280;22981;43.080;25.550;2023-07-13T09:48:34;99478.24;;;33.53;40.31
37066;BME280;22981;43.080;25.550;2023-07-13T09:51:09;99473.41;;;33.59;40.15
37066;BME280;22981;43.080;25.550;2023-07-13T09:53:36;99471.48;;;33.63;40.47
37066;BME280;22981;43.080;25.550;2023-07-13T09:56:04;99469.97;;;33.70;41.11
37066;BME280;22981;43.080;25.550;2023-07-13T09:58:35;99464.91;;;33.75;41.04
37066;BME280;22981;43.080;25.550;2023-07-13T10:01:04;99458.59;;;33.78;40.72
37066;BME280;22981;43.080;25.550;2023-07-13T10:03:34;99458.44;;;33.81;40.45
37066;BME280;22981;43.080;25.550;2023-07-13T10:06:17;99460.23;;;33.83;40.39
37066;BME280;22981;43.080;25.550;2023-07-13T10:08:46;99460.49;;;33.87;39.76
37066;BME280;22981;43.080;25.550;2023-07-13T10:11:22;99466.89;;;33.92;39.91
37066;BME280;22981;43.080;25.550;2023-07-13T10:14:01;99469.52;;;33.94;39.62
37066;BME280;22981;43.080;25.550;2023-07-13T10:16:32;99470.80;;;34.00;39.30
37066;BME280;22981;43.080;25.550;2023-07-13T10:19:25;99470.50;;;34.05;38.77
37066;BME280;22981;43.080;25.550;2023-07-13T10:21:36;99467.33;;;34.07;39.37
37066;BME280;22981;43.080;25.550;2023-07-13T10:24:20;99464.61;;;34.10;39.17
37066;BME280;22981;43.080;25.550;2023-07-13T10:27:04;99457.91;;;34.15;39.25
37066;BME280;22981;43.080;25.550;2023-07-13T10:29:42;99459.96;;;34.22;38.86
37066;BME280;22981;43.080;25.550;2023-07-13T10:32:09;99460.01;;;34.25;39.45
37066;BME280;22981;43.080;25.550;2023-07-13T10:34:37;99450.53;;;34.30;38.88
37066;BME280;22981;43.080;25.550;2023-07-13T10:37:07;99451.81;;;34.36;38.10
37066;BME280;22981;43.080;25.550;2023-07-13T10:39:36;99448.28;;;34.39;37.29
37066;BME280;22981;43.080;25.550;2023-07-13T10:42:08;99448.69;;;34.41;36.84
37066;BME280;22981;43.080;25.550;2023-07-13T10:44:36;99444.77;;;34.46;36.67
37066;BME280;22981;43.080;25.550;2023-07-13T10:47:06;99440.23;;;34.47;36.85
37066;BME280;22981;43.080;25.550;2023-07-13T10:49:34;99436.90;;;34.51;36.71
37066;BME280;22981;43.080;25.550;2023-07-13T10:52:03;99439.72;;;34.55;35.93
37066;BME280;22981;43.080;25.550;2023-07-13T10:54:34;99435.98;;;34.57;36.21
37066;BME280;22981;43.080;25.550;2023-07-13T10:57:17;99447.55;;;34.62;36.46
37066;BME280;22981;43.080;25.550;2023-07-13T11:02:31;99448.42;;;34.70;36.97
37066;BME280;22981;43.080;25.550;2023-07-13T11:04:58;99451.80;;;34.70;37.39
37066;BME280;22981;43.080;25.550;2023-07-13T11:07:29;99452.59;;;34.70;38.06
37066;BME280;22981;43.080;25.550;2023-07-13T11:10:00;99452.20;;;34.72;37.33
37066;BME280;22981;43.080;25.550;2023-07-13T11:12:49;99452.63;;;34.74;37.14
37066;BME280;22981;43.080;25.550;2023-07-13T11:15:43;99449.86;;;34.77;36.38
37066;BME280;22981;43.080;25.550;2023-07-13T11:17:54;99448.67;;;34.75;35.76
37066;BME280;22981;43.080;25.550;2023-07-13T11:20:30;99442.31;;;34.74;35.72
37066;BME280;22981;43.080;25.550;2023-07-13T11:25:44;99433.02;;;34.80;35.77
37066;BME280;22981;43.080;25.550;2023-07-13T11:28:16;99432.62;;;34.81;35.55
37066;BME280;22981;43.080;25.550;2023-07-13T11:30:49;99428.28;;;34.84;35.35
37066;BME280;22981;43.080;25.550;2023-07-13T11:33:23;99418.39;;;34.86;35.94
37066;BME280;22981;43.080;25.550;2023-07-13T11:36:05;99420.61;;;34.91;36.74
37066;BME280;22981;43.080;25.550;2023-07-13T11:38:44;99416.64;;;34.92;35.15
37066;BME280;22981;43.080;25.550;2023-07-13T11:41:22;99424.55;;;34.89;35.40
37066;BME280;22981;43.080;25.550;2023-07-13T11:44:01;99417.40;;;34.88;36.28
37066;BME280;22981;43.080;25.550;2023-07-13T11:46:30;99411.08;;;34.92;36.08
37066;BME280;22981;43.080;25.550;2023-07-13T11:48:58;99413.06;;;34.95;36.16
37066;BME280;22981;43.080;25.550;2023-07-13T11:51:30;99415.71;;;34.97;36.20
37066;BME280;22981;43.080;25.550;2023-07-13T11:54:03;99410.34;;;34.98;35.18
37066;BME280;22981;43.080;25.550;2023-07-13T11:56:30;99403.39;;;34.98;35.02
37066;BME280;22981;43.080;25.550;2023-07-13T11:59:03;99396.24;;;34.97;34.56
37066;BME280;22981;43.080;25.550;2023-07-13T12:01:31;99393.89;;;34.99;33.56
37066;BME280;22981;43.080;25.550;2023-07-13T12:04:02;99396.88;;;35.00;33.67
37066;BME280;22981;43.080;25.550;2023-07-13T12:06:32;99390.51;;;35.00;34.38
37066;BME280;22981;43.080;25.550;2023-07-13T12:09:08;99394.88;;;35.01;34.99
37066;BME280;22981;43.080;25.550;2023-07-13T12:11:35;99388.92;;;35.02;34.82
37066;BME280;22981;43.080;25.550;2023-07-13T12:14:04;99388.16;;;35.05;34.38
37066;BME280;22981;43.080;25.550;2023-07-13T12:16:33;99386.97;;;35.06;34.65
37066;BME280;22981;43.080;25.550;2023-07-13T12:19:02;99369.48;;;35.06;34.44
37066;BME280;22981;43.080;25.550;2023-07-13T12:21:32;99366.66;;;35.02;34.45
37066;BME280;22981;43.080;25.550;2023-07-13T12:24:01;99368.25;;;35.00;34.08
37066;BME280;22981;43.080;25.550;2023-07-13T12:26:30;99364.02;;;34.96;34.02
37066;BME280;22981;43.080;25.550;2023-07-13T12:29:04;99363.00;;;34.95;34.45
37066;BME280;22981;43.080;25.550;2023-07-13T12:31:40;99362.63;;;34.96;34.19
37066;BME280;22981;43.080;25.550;2023-07-13T12:34:19;99361.84;;;34.96;33.90
37066;BME280;22981;43.080;25.550;2023-07-13T12:36:49;99351.47;;;34.93;33.95
37066;BME280;22981;43.080;25.550;2023-07-13T12:41:49;99352.70;;;34.95;34.31
37066;BME280;22981;43.080;25.550;2023-07-13T12:44:25;99341.34;;;34.94;34.62
37066;BME280;22981;43.080;25.550;2023-07-13T12:47:04;99332.41;;;34.95;34.94
37066;BME280;22981;43.080;25.550;2023-07-13T12:49:26;99326.30;;;34.99;36.32
37066;BME280;22981;43.080;25.550;2023-07-13T12:51:58;99330.28;;;34.98;35.68
37066;BME280;22981;43.080;25.550;2023-07-13T12:54:27;99321.27;;;34.95;35.50
37066;BME280;22981;43.080;25.550;2023-07-13T12:56:57;99327.66;;;34.95;35.75
37066;BME280;22981;43.080;25.550;2023-07-13T12:59:29;99320.70;;;34.95;35.85
37066;BME280;22981;43.080;25.550;2023-07-13T13:01:56;99320.88;;;34.93;35.22
37066;BME280;22981;43.080;25.550;2023-07-13T13:04:24;99315.72;;;34.91;34.61
37066;BME280;22981;43.080;25.550;2023-07-13T13:07:03;99313.73;;;34.92;35.20
37066;BME280;22981;43.080;25.550;2023-07-13T13:09:31;99313.53;;;34.91;35.03
37066;BME280;22981;43.080;25.550;2023-07-13T13:11:59;99308.33;;;34.89;35.36
37066;BME280;22981;43.080;25.550;2023-07-13T13:14:27;99315.88;;;34.88;36.04
37066;BME280;22981;43.080;25.550;2023-07-13T13:16:55;99318.66;;;34.88;34.91
37066;BME280;22981;43.080;25.550;2023-07-13T13:19:25;99309.72;;;34.89;34.87
37066;BME280;22981;43.080;25.550;2023-07-13T13:21:55;99305.55;;;34.89;34.91
37066;BME280;22981;43.080;25.550;2023-07-13T13:24:27;99301.78;;;34.87;35.49
37066;BME280;22981;43.080;25.550;2023-07-13T13:26:55;99312.48;;;34.85;35.55